createdAt,value
2019-03-13T00:00:22.134Z,53.80
2019-03-13T00:00:54.798Z,53.80
2019-03-13T00:01:26.011Z,53.80
2019-03-13T00:01:57.546Z,53.80
2019-03-13T00:02:28.754Z,53.90
2019-03-13T00:03:00.315Z,53.90
2019-03-13T00:03:31.495Z,53.90
2019-03-13T00:04:02.743Z,53.90
2019-03-13T00:04:35.195Z,53.90
2019-03-13T00:05:06.707Z,54.20
2019-03-13T00:05:38.249Z,53.80
2019-03-13T00:06:09.506Z,53.70
2019-03-13T00:06:40.751Z,53.80
2019-03-13T00:07:12.215Z,53.80
2019-03-13T00:07:43.378Z,54.40
2019-03-13T00:08:14.584Z,53.80
2019-03-13T00:08:45.764Z,53.70
2019-03-13T00:09:17.240Z,53.70
2019-03-13T00:09:48.819Z,53.70
2019-03-13T00:10:20.332Z,53.70
2019-03-13T00:10:51.508Z,53.70
2019-03-13T00:11:22.688Z,53.70
2019-03-13T00:11:53.864Z,53.70
2019-03-13T00:12:25.040Z,53.60
2019-03-13T00:12:56.264Z,53.60
2019-03-13T00:13:27.437Z,53.70
2019-03-13T00:13:58.632Z,53.70
2019-03-13T00:14:29.800Z,53.60
2019-03-13T00:15:00.973Z,54.30
2019-03-13T00:15:32.172Z,53.60
2019-03-13T00:16:03.429Z,53.60
2019-03-13T00:16:34.614Z,53.60
2019-03-13T00:17:05.777Z,53.60
2019-03-13T00:17:37.275Z,53.60
2019-03-13T00:18:08.482Z,53.60
2019-03-13T00:18:39.806Z,53.60
2019-03-13T00:19:11.021Z,53.60
2019-03-13T00:19:42.718Z,53.60
2019-03-13T00:20:13.898Z,53.60
2019-03-13T00:20:45.082Z,53.60
2019-03-13T00:21:16.253Z,53.60
2019-03-13T00:21:47.729Z,53.60
2019-03-13T00:22:18.912Z,53.60
2019-03-13T00:22:50.135Z,53.70
2019-03-13T00:23:21.683Z,53.60
2019-03-13T00:23:52.850Z,53.60
2019-03-13T00:24:24.310Z,53.60
2019-03-13T00:24:56.362Z,53.60
2019-03-13T00:25:27.647Z,53.60
2019-03-13T00:25:58.819Z,53.60
2019-03-13T00:26:30.371Z,53.60
2019-03-13T00:27:01.552Z,53.80
2019-03-13T00:27:32.767Z,53.70
2019-03-13T00:28:03.983Z,53.70
2019-03-13T00:28:35.159Z,53.70
2019-03-13T00:29:06.352Z,53.70
2019-03-13T00:29:37.532Z,53.70
2019-03-13T00:30:08.712Z,53.70
2019-03-13T00:30:39.976Z,53.70
2019-03-13T00:31:11.156Z,53.70
2019-03-13T00:31:42.410Z,53.70
2019-03-13T00:32:13.934Z,53.70
2019-03-13T00:32:45.108Z,53.70
2019-03-13T00:33:16.292Z,53.60
2019-03-13T00:33:47.532Z,53.60
2019-03-13T00:34:19.075Z,53.60
2019-03-13T00:34:50.248Z,53.60
2019-03-13T00:35:21.425Z,53.60
2019-03-13T00:35:52.620Z,53.60
2019-03-13T00:36:23.801Z,53.60
2019-03-13T00:36:54.986Z,53.60
2019-03-13T00:37:26.171Z,53.60
2019-03-13T00:37:57.414Z,53.60
2019-03-13T00:38:28.589Z,53.60
2019-03-13T00:39:00.030Z,53.60
2019-03-13T00:39:31.211Z,53.60
2019-03-13T00:40:02.478Z,53.70
2019-03-13T00:40:33.672Z,53.60
2019-03-13T00:41:04.866Z,53.60
2019-03-13T00:41:36.046Z,53.60
2019-03-13T00:42:07.646Z,53.60
2019-03-13T00:42:39.243Z,53.60
2019-03-13T00:43:10.499Z,53.60
2019-03-13T00:43:41.664Z,53.60
2019-03-13T00:44:13.224Z,53.60
2019-03-13T00:44:44.402Z,53.60
2019-03-13T00:45:15.570Z,53.50
2019-03-13T00:45:46.844Z,53.60
2019-03-13T00:46:18.035Z,53.50
2019-03-13T00:46:49.218Z,53.50
2019-03-13T00:47:20.394Z,53.50
2019-03-13T00:47:51.559Z,53.50
2019-03-13T00:48:23.056Z,53.40
2019-03-13T00:48:54.232Z,53.50
2019-03-13T00:49:25.736Z,53.50
2019-03-13T00:49:56.907Z,53.40
2019-03-13T00:50:28.088Z,53.50
2019-03-13T00:50:59.273Z,53.40
2019-03-13T00:51:30.448Z,53.40
2019-03-13T00:52:01.657Z,53.50
2019-03-13T00:52:33.185Z,53.50
2019-03-13T00:53:04.341Z,53.40
2019-03-13T00:53:35.517Z,53.40
2019-03-13T00:54:06.693Z,53.50
2019-03-13T00:54:37.880Z,53.40
2019-03-13T00:55:09.077Z,53.50
2019-03-13T00:55:40.333Z,53.40
2019-03-13T00:56:11.513Z,53.40
2019-03-13T00:56:42.996Z,53.40
2019-03-13T00:57:14.165Z,54.00
2019-03-13T00:57:45.349Z,53.40
2019-03-13T00:58:16.529Z,53.40
2019-03-13T00:58:47.737Z,53.40
2019-03-13T00:59:18.962Z,53.40
2019-03-13T00:59:50.142Z,53.50
2019-03-13T01:00:21.334Z,53.40
2019-03-13T01:00:52.550Z,54.20
2019-03-13T01:01:24.067Z,53.40
2019-03-13T01:01:55.624Z,53.40
2019-03-13T01:02:26.794Z,53.40
2019-03-13T01:02:57.984Z,53.40
2019-03-13T01:03:29.162Z,53.40
2019-03-13T01:04:00.364Z,53.40
2019-03-13T01:04:31.530Z,53.40
2019-03-13T01:05:02.790Z,53.40
2019-03-13T01:05:34.029Z,53.40
2019-03-13T01:06:05.196Z,53.40
2019-03-13T01:06:36.412Z,53.40
2019-03-13T01:07:07.571Z,53.40
2019-03-13T01:07:38.749Z,53.40
2019-03-13T01:08:09.920Z,53.40
2019-03-13T01:08:41.099Z,53.40
2019-03-13T01:09:12.268Z,53.40
2019-03-13T01:09:43.435Z,53.50
2019-03-13T01:10:14.659Z,53.40
2019-03-13T01:10:45.889Z,53.50
2019-03-13T01:11:17.064Z,53.50
2019-03-13T01:11:48.325Z,53.50
2019-03-13T01:12:19.507Z,54.10
2019-03-13T01:12:50.683Z,53.50
2019-03-13T01:13:21.857Z,53.10
2019-03-13T01:13:53.081Z,53.50
2019-03-13T01:14:24.328Z,53.50
2019-03-13T01:14:55.530Z,53.50
2019-03-13T01:15:26.705Z,53.50
2019-03-13T01:15:57.884Z,53.50
2019-03-13T01:16:29.137Z,53.60
2019-03-13T01:17:00.626Z,53.50
2019-03-13T01:17:31.881Z,53.60
2019-03-13T01:18:03.193Z,53.60
2019-03-13T01:18:34.373Z,53.60
2019-03-13T01:19:05.573Z,53.60
2019-03-13T01:19:36.745Z,53.60
2019-03-13T01:20:08.226Z,53.60
2019-03-13T01:20:39.409Z,53.60
2019-03-13T01:21:10.652Z,53.60
2019-03-13T01:21:41.899Z,53.60
2019-03-13T01:22:13.098Z,53.60
2019-03-13T01:22:44.282Z,54.20
2019-03-13T01:23:15.465Z,53.40
2019-03-13T01:23:48.371Z,53.50
2019-03-13T01:24:19.619Z,53.50
2019-03-13T01:24:50.790Z,53.50
2019-03-13T01:25:22.427Z,53.50
2019-03-13T01:25:53.946Z,53.50
2019-03-13T01:26:25.126Z,53.50
2019-03-13T01:26:56.599Z,53.40
2019-03-13T01:27:27.775Z,53.40
2019-03-13T01:27:59.274Z,53.40
2019-03-13T01:28:30.471Z,53.40
2019-03-13T01:29:01.643Z,53.30
2019-03-13T01:29:32.839Z,53.30
2019-03-13T01:30:04.018Z,53.40
2019-03-13T01:30:35.217Z,53.80
2019-03-13T01:31:06.388Z,53.30
2019-03-13T01:31:37.924Z,53.40
2019-03-13T01:32:09.101Z,53.30
2019-03-13T01:32:40.329Z,53.30
2019-03-13T01:33:11.504Z,53.30
2019-03-13T01:33:42.705Z,53.30
2019-03-13T01:34:13.892Z,53.30
2019-03-13T01:34:45.068Z,53.30
2019-03-13T01:35:16.527Z,53.30
2019-03-13T01:35:47.712Z,53.40
2019-03-13T01:36:18.880Z,53.30
2019-03-13T01:36:50.057Z,53.20
2019-03-13T01:37:21.553Z,53.20
2019-03-13T01:37:52.762Z,53.30
2019-03-13T01:38:23.939Z,53.20
2019-03-13T01:38:55.154Z,53.30
2019-03-13T01:39:26.397Z,53.20
2019-03-13T01:39:57.573Z,53.30
2019-03-13T01:40:28.753Z,53.30
2019-03-13T01:40:59.930Z,53.30
2019-03-13T01:41:31.450Z,53.30
2019-03-13T01:42:02.725Z,53.30
2019-03-13T01:42:33.962Z,53.30
2019-03-13T01:43:05.134Z,53.40
2019-03-13T01:43:36.309Z,53.40
2019-03-13T01:44:08.114Z,53.40
2019-03-13T01:44:40.680Z,53.40
2019-03-13T01:45:12.158Z,53.40
2019-03-13T01:45:43.344Z,53.40
2019-03-13T01:46:14.515Z,54.00
2019-03-13T01:46:45.696Z,53.50
2019-03-13T01:47:16.911Z,53.50
2019-03-13T01:47:48.147Z,53.50
2019-03-13T01:48:19.345Z,53.50
2019-03-13T01:48:50.519Z,53.50
2019-03-13T01:49:21.700Z,53.50
2019-03-13T01:49:52.877Z,53.40
2019-03-13T01:50:24.120Z,53.40
2019-03-13T01:50:55.320Z,53.40
2019-03-13T01:51:26.494Z,53.40
2019-03-13T01:51:57.664Z,53.40
2019-03-13T01:52:32.084Z,53.40
2019-03-13T01:53:01.784Z,53.40
2019-03-13T01:53:33.001Z,53.40
2019-03-13T01:54:04.680Z,53.40
2019-03-13T01:54:35.857Z,53.30
2019-03-13T01:55:07.053Z,53.30
2019-03-13T01:55:38.288Z,53.40
2019-03-13T01:56:09.464Z,53.40
2019-03-13T01:56:40.679Z,53.40
2019-03-13T01:57:11.965Z,53.40
2019-03-13T01:57:43.148Z,53.40
2019-03-13T01:58:14.317Z,53.40
2019-03-13T01:58:45.492Z,53.40
2019-03-13T01:59:16.681Z,53.40
2019-03-13T01:59:47.881Z,53.40
2019-03-13T02:00:19.314Z,53.50
2019-03-13T02:00:50.496Z,53.40
2019-03-13T02:01:21.670Z,53.40
2019-03-13T02:01:52.844Z,53.40
2019-03-13T02:02:24.046Z,53.50
2019-03-13T02:02:55.238Z,53.50
2019-03-13T02:03:26.481Z,53.40
2019-03-13T02:03:57.650Z,53.50
2019-03-13T02:04:28.826Z,53.40
2019-03-13T02:05:00.024Z,53.40
2019-03-13T02:05:31.189Z,53.40
2019-03-13T02:06:02.375Z,53.40
2019-03-13T02:06:33.634Z,53.40
2019-03-13T02:07:04.825Z,53.40
2019-03-13T02:07:36.031Z,53.40
2019-03-13T02:08:07.310Z,53.30
2019-03-13T02:08:38.538Z,53.30
2019-03-13T02:09:09.999Z,53.30
2019-03-13T02:09:41.188Z,53.40
2019-03-13T02:10:12.379Z,53.30
2019-03-13T02:10:43.559Z,53.30
2019-03-13T02:11:14.763Z,53.30
2019-03-13T02:11:45.995Z,53.40
2019-03-13T02:12:17.187Z,53.40
2019-03-13T02:12:48.428Z,53.30
2019-03-13T02:13:19.620Z,53.40
2019-03-13T02:13:50.788Z,53.40
2019-03-13T02:14:21.975Z,53.40
2019-03-13T02:14:53.162Z,53.30
2019-03-13T02:15:24.405Z,53.30
2019-03-13T02:15:55.628Z,53.30
2019-03-13T02:16:26.805Z,53.20
2019-03-13T02:16:58.016Z,53.20
2019-03-13T02:17:29.196Z,53.20
2019-03-13T02:18:00.380Z,53.20
2019-03-13T02:18:31.617Z,53.30
2019-03-13T02:19:03.122Z,53.20
2019-03-13T02:19:34.297Z,53.10
2019-03-13T02:20:05.469Z,53.20
2019-03-13T02:20:36.650Z,53.10
2019-03-13T02:21:07.836Z,53.20
2019-03-13T02:21:39.006Z,53.20
2019-03-13T02:22:10.555Z,53.20
2019-03-13T02:22:41.717Z,53.20
2019-03-13T02:23:12.900Z,53.20
2019-03-13T02:23:44.074Z,53.30
2019-03-13T02:24:15.253Z,53.20
2019-03-13T02:24:46.450Z,53.30
2019-03-13T02:25:17.623Z,53.30
2019-03-13T02:25:49.141Z,53.30
2019-03-13T02:26:20.781Z,53.30
2019-03-13T02:26:52.023Z,53.30
2019-03-13T02:27:23.550Z,53.40
2019-03-13T02:27:54.750Z,53.30
2019-03-13T02:28:25.971Z,53.30
2019-03-13T02:28:57.147Z,53.40
2019-03-13T02:29:28.324Z,53.30
2019-03-13T02:29:59.500Z,53.30
2019-03-13T02:30:30.675Z,53.30
2019-03-13T02:31:01.883Z,53.40
2019-03-13T02:31:33.141Z,53.30
2019-03-13T02:32:04.364Z,53.40
2019-03-13T02:32:35.578Z,53.40
2019-03-13T02:33:07.101Z,53.40
2019-03-13T02:33:38.272Z,53.40
2019-03-13T02:34:09.454Z,53.40
2019-03-13T02:34:40.661Z,53.40
2019-03-13T02:35:11.923Z,53.50
2019-03-13T02:35:43.160Z,53.40
2019-03-13T02:36:14.333Z,53.40
2019-03-13T02:36:45.518Z,53.40
2019-03-13T02:37:16.704Z,53.40
2019-03-13T02:37:48.010Z,53.40
2019-03-13T02:38:19.258Z,53.40
2019-03-13T02:38:50.451Z,53.40
2019-03-13T02:39:21.625Z,53.40
2019-03-13T02:39:52.811Z,53.40
2019-03-13T02:40:24.005Z,53.40
2019-03-13T02:40:55.192Z,53.40
2019-03-13T02:41:26.441Z,53.40
2019-03-13T02:41:57.694Z,53.50
2019-03-13T02:42:28.891Z,53.40
2019-03-13T02:43:00.130Z,53.40
2019-03-13T02:43:31.333Z,53.50
2019-03-13T02:44:02.514Z,53.40
2019-03-13T02:44:33.711Z,53.40
2019-03-13T02:45:04.891Z,53.40
2019-03-13T02:45:36.083Z,53.30
2019-03-13T02:46:07.253Z,53.30
2019-03-13T02:46:38.426Z,53.30
2019-03-13T02:47:09.590Z,53.30
2019-03-13T02:47:40.790Z,53.30
2019-03-13T02:48:11.996Z,53.30
2019-03-13T02:48:43.267Z,53.30
2019-03-13T02:49:14.449Z,53.20
2019-03-13T02:49:45.922Z,53.20
2019-03-13T02:50:17.098Z,53.30
2019-03-13T02:50:48.296Z,53.30
2019-03-13T02:51:19.825Z,53.20
2019-03-13T02:51:51.000Z,53.20
2019-03-13T02:52:22.188Z,53.20
2019-03-13T02:52:53.639Z,53.20
2019-03-13T02:53:24.808Z,53.20
2019-03-13T02:53:55.984Z,53.20
2019-03-13T02:54:27.169Z,53.20
2019-03-13T02:54:58.340Z,53.20
2019-03-13T02:55:29.518Z,53.20
2019-03-13T02:56:00.715Z,53.20
2019-03-13T02:56:31.968Z,53.20
2019-03-13T02:57:03.177Z,53.20
2019-03-13T02:57:34.353Z,53.50
2019-03-13T02:58:05.587Z,53.20
2019-03-13T02:58:36.833Z,53.30
2019-03-13T02:59:08.010Z,53.30
2019-03-13T02:59:39.190Z,53.20
2019-03-13T03:00:10.399Z,53.20
2019-03-13T03:00:41.629Z,53.20
2019-03-13T03:01:13.131Z,53.30
2019-03-13T03:01:44.337Z,53.30
2019-03-13T03:02:15.565Z,53.30
2019-03-13T03:02:46.742Z,53.30
2019-03-13T03:03:17.949Z,53.30
2019-03-13T03:03:49.177Z,53.30
2019-03-13T03:04:20.346Z,53.20
2019-03-13T03:04:51.519Z,53.30
2019-03-13T03:05:22.783Z,53.20
2019-03-13T03:05:54.341Z,53.20
2019-03-13T03:06:25.553Z,53.30
2019-03-13T03:06:56.723Z,53.20
2019-03-13T03:07:27.912Z,53.30
2019-03-13T03:07:59.078Z,53.20
2019-03-13T03:08:30.256Z,53.30
2019-03-13T03:09:01.721Z,53.20
2019-03-13T03:09:33.276Z,53.20
2019-03-13T03:10:04.506Z,53.20
2019-03-13T03:10:36.027Z,53.20
2019-03-13T03:11:07.232Z,53.20
2019-03-13T03:11:38.413Z,53.20
2019-03-13T03:12:09.657Z,53.20
2019-03-13T03:12:41.167Z,53.30
2019-03-13T03:13:12.344Z,53.20
2019-03-13T03:13:43.543Z,53.30
2019-03-13T03:14:14.708Z,53.30
2019-03-13T03:14:45.885Z,53.20
2019-03-13T03:15:17.057Z,53.30
2019-03-13T03:15:48.238Z,53.30
2019-03-13T03:16:19.425Z,53.20
2019-03-13T03:16:50.629Z,53.30
2019-03-13T03:17:21.800Z,53.30
2019-03-13T03:17:53.005Z,53.30
2019-03-13T03:18:24.182Z,53.30
2019-03-13T03:18:55.390Z,53.30
2019-03-13T03:19:26.610Z,53.30
2019-03-13T03:19:57.790Z,53.20
2019-03-13T03:20:28.962Z,53.20
2019-03-13T03:21:00.185Z,53.30
2019-03-13T03:21:31.369Z,53.20
2019-03-13T03:22:02.544Z,53.30
2019-03-13T03:22:33.721Z,53.30
2019-03-13T03:23:04.892Z,53.30
2019-03-13T03:23:36.072Z,53.30
2019-03-13T03:24:07.566Z,53.30
2019-03-13T03:24:39.104Z,53.30
2019-03-13T03:25:10.285Z,53.30
2019-03-13T03:25:41.461Z,53.30
2019-03-13T03:26:12.723Z,53.30
2019-03-13T03:26:43.958Z,53.30
2019-03-13T03:27:15.127Z,53.40
2019-03-13T03:27:46.324Z,53.30
2019-03-13T03:28:17.574Z,53.30
2019-03-13T03:28:48.768Z,53.30
2019-03-13T03:29:19.946Z,53.30
2019-03-13T03:29:51.461Z,53.30
2019-03-13T03:30:22.839Z,53.30
2019-03-13T03:30:54.299Z,53.30
2019-03-13T03:31:25.558Z,53.30
2019-03-13T03:31:56.771Z,53.40
2019-03-13T03:32:28.009Z,53.30
2019-03-13T03:32:59.177Z,53.30
2019-03-13T03:33:30.355Z,53.20
2019-03-13T03:34:01.602Z,53.20
2019-03-13T03:34:32.881Z,53.30
2019-03-13T03:35:04.118Z,53.20
2019-03-13T03:35:35.293Z,53.20
2019-03-13T03:36:06.820Z,53.20
2019-03-13T03:36:38.020Z,53.20
2019-03-13T03:37:09.194Z,53.20
2019-03-13T03:37:40.488Z,53.10
2019-03-13T03:38:11.684Z,53.20
2019-03-13T03:38:42.861Z,53.20
2019-03-13T03:39:14.036Z,53.20
2019-03-13T03:39:45.553Z,53.20
2019-03-13T03:40:21.706Z,53.10
2019-03-13T03:40:49.633Z,53.10
2019-03-13T03:41:20.863Z,53.10
2019-03-13T03:41:52.121Z,53.20
2019-03-13T03:42:23.304Z,53.10
2019-03-13T03:42:54.481Z,53.10
2019-03-13T03:43:39.150Z,53.10
2019-03-13T03:43:58.565Z,53.10
2019-03-13T03:44:29.738Z,53.20
2019-03-13T03:45:00.955Z,53.20
2019-03-13T03:45:32.211Z,53.10
2019-03-13T03:46:03.448Z,53.20
2019-03-13T03:46:34.703Z,53.20
2019-03-13T03:47:05.887Z,53.20
2019-03-13T03:47:37.064Z,53.20
2019-03-13T03:48:08.247Z,53.20
2019-03-13T03:48:39.435Z,53.80
2019-03-13T03:49:10.623Z,53.30
2019-03-13T03:49:41.805Z,53.20
2019-03-13T03:50:12.980Z,53.20
2019-03-13T03:50:44.220Z,53.00
2019-03-13T03:51:15.395Z,53.30
2019-03-13T03:51:46.602Z,53.20
2019-03-13T03:52:17.783Z,53.30
2019-03-13T03:52:48.958Z,53.30
2019-03-13T03:53:20.139Z,53.30
2019-03-13T03:53:51.312Z,53.30
2019-03-13T03:54:22.519Z,53.40
2019-03-13T03:54:53.747Z,53.30
2019-03-13T03:55:25.291Z,53.20
2019-03-13T03:55:56.508Z,53.30
2019-03-13T03:56:27.756Z,53.20
2019-03-13T03:56:58.925Z,53.30
2019-03-13T03:57:30.444Z,53.30
2019-03-13T03:58:01.692Z,53.20
2019-03-13T03:58:32.873Z,53.20
2019-03-13T03:59:04.051Z,53.20
2019-03-13T03:59:35.217Z,53.30
2019-03-13T04:00:06.429Z,53.20
2019-03-13T04:00:37.661Z,53.50
2019-03-13T04:01:08.841Z,53.30
2019-03-13T04:01:40.023Z,53.20
2019-03-13T04:02:11.309Z,53.20
2019-03-13T04:02:42.482Z,53.20
2019-03-13T04:03:13.681Z,53.20
2019-03-13T04:03:44.910Z,53.10
2019-03-13T04:04:16.093Z,53.20
2019-03-13T04:04:47.670Z,53.20
2019-03-13T04:05:18.913Z,53.20
2019-03-13T04:05:50.135Z,53.10
2019-03-13T04:06:21.399Z,53.20
2019-03-13T04:06:52.576Z,53.20
2019-03-13T04:07:23.782Z,53.10
2019-03-13T04:07:54.990Z,52.90
2019-03-13T04:08:26.232Z,53.10
2019-03-13T04:08:57.409Z,53.20
2019-03-13T04:09:28.611Z,53.20
2019-03-13T04:09:59.791Z,53.50
2019-03-13T04:10:30.985Z,53.20
2019-03-13T04:11:02.227Z,53.20
2019-03-13T04:11:33.419Z,53.20
2019-03-13T04:12:04.574Z,53.20
2019-03-13T04:12:35.928Z,53.20
2019-03-13T04:13:07.126Z,53.20
2019-03-13T04:13:38.628Z,53.20
2019-03-13T04:14:09.807Z,53.10
2019-03-13T04:14:41.026Z,53.10
2019-03-13T04:15:12.196Z,53.20
2019-03-13T04:15:43.387Z,53.20
2019-03-13T04:16:14.889Z,53.20
2019-03-13T04:16:46.069Z,53.20
2019-03-13T04:17:17.559Z,53.20
2019-03-13T04:17:48.761Z,53.20
2019-03-13T04:18:19.927Z,53.10
2019-03-13T04:18:51.113Z,53.20
2019-03-13T04:19:22.285Z,53.20
2019-03-13T04:19:53.478Z,53.20
2019-03-13T04:20:24.648Z,53.20
2019-03-13T04:20:55.873Z,53.20
2019-03-13T04:21:27.423Z,53.20
2019-03-13T04:21:58.599Z,53.10
2019-03-13T04:22:29.789Z,53.10
2019-03-13T04:23:00.974Z,53.10
2019-03-13T04:23:32.165Z,53.10
2019-03-13T04:24:03.687Z,53.10
2019-03-13T04:24:34.898Z,53.10
2019-03-13T04:25:06.074Z,53.10
2019-03-13T04:25:37.264Z,53.20
2019-03-13T04:26:12.329Z,53.00
2019-03-13T04:26:41.343Z,53.20
2019-03-13T04:27:12.517Z,53.10
2019-03-13T04:27:43.721Z,53.10
2019-03-13T04:28:14.979Z,53.10
2019-03-13T04:28:46.160Z,53.10
2019-03-13T04:29:17.650Z,53.10
2019-03-13T04:29:49.176Z,53.10
2019-03-13T04:30:20.373Z,53.20
2019-03-13T04:30:51.652Z,53.10
2019-03-13T04:31:22.902Z,53.10
2019-03-13T04:31:54.079Z,53.10
2019-03-13T04:32:25.251Z,53.10
2019-03-13T04:32:57.628Z,53.00
2019-03-13T04:33:28.884Z,53.10
2019-03-13T04:34:00.139Z,53.80
2019-03-13T04:34:31.387Z,53.20
2019-03-13T04:35:02.568Z,53.10
2019-03-13T04:35:33.779Z,53.20
2019-03-13T04:36:05.085Z,53.20
2019-03-13T04:36:36.308Z,53.20
2019-03-13T04:37:07.487Z,53.20
2019-03-13T04:37:38.743Z,53.20
2019-03-13T04:38:09.920Z,53.10
2019-03-13T04:38:41.145Z,53.20
2019-03-13T04:39:12.320Z,53.20
2019-03-13T04:39:43.492Z,53.20
2019-03-13T04:40:14.663Z,53.20
2019-03-13T04:40:45.874Z,53.20
2019-03-13T04:41:17.045Z,53.20
2019-03-13T04:41:48.291Z,53.20
2019-03-13T04:42:19.505Z,53.20
2019-03-13T04:42:50.684Z,53.80
2019-03-13T04:43:21.862Z,53.10
2019-03-13T04:43:53.045Z,53.20
2019-03-13T04:44:24.221Z,53.10
2019-03-13T04:44:55.409Z,53.20
2019-03-13T04:45:26.638Z,53.20
2019-03-13T04:45:57.837Z,53.20
2019-03-13T04:46:29.338Z,53.10
2019-03-13T04:47:00.514Z,53.10
2019-03-13T04:47:32.002Z,53.10
2019-03-13T04:48:03.181Z,53.10
2019-03-13T04:48:34.698Z,53.10
2019-03-13T04:49:05.878Z,53.10
2019-03-13T04:49:37.054Z,53.10
2019-03-13T04:50:08.226Z,53.10
2019-03-13T04:50:39.437Z,53.10
2019-03-13T04:51:10.604Z,53.10
2019-03-13T04:51:41.770Z,53.70
2019-03-13T04:52:12.938Z,53.10
2019-03-13T04:52:44.162Z,53.10
2019-03-13T04:53:15.358Z,53.10
2019-03-13T04:53:46.532Z,53.10
2019-03-13T04:54:18.123Z,53.10
2019-03-13T04:54:49.295Z,53.10
2019-03-13T04:55:20.790Z,53.00
2019-03-13T04:55:52.664Z,53.00
2019-03-13T04:56:24.025Z,53.10
2019-03-13T04:56:55.202Z,53.10
2019-03-13T04:57:27.007Z,53.10
2019-03-13T04:57:58.819Z,53.10
2019-03-13T04:58:30.016Z,53.70
2019-03-13T04:59:01.464Z,53.00
2019-03-13T04:59:33.008Z,53.10
2019-03-13T05:00:04.544Z,53.10
2019-03-13T05:00:35.715Z,53.00
2019-03-13T05:01:07.268Z,53.80
2019-03-13T05:01:38.986Z,53.10
2019-03-13T05:02:11.037Z,53.80
2019-03-13T05:02:42.457Z,53.20
2019-03-13T05:03:14.112Z,53.10
2019-03-13T05:03:45.340Z,53.10
2019-03-13T05:04:16.524Z,53.10
2019-03-13T05:04:47.993Z,53.10
2019-03-13T05:05:19.181Z,53.10
2019-03-13T05:05:50.354Z,53.10
2019-03-13T05:06:21.577Z,53.10
2019-03-13T05:06:52.781Z,53.10
2019-03-13T05:07:23.961Z,53.20
2019-03-13T05:07:55.145Z,53.10
2019-03-13T05:08:26.361Z,53.10
2019-03-13T05:08:57.577Z,53.10
2019-03-13T05:09:28.761Z,53.20
2019-03-13T05:09:59.938Z,53.10
2019-03-13T05:10:31.114Z,53.20
2019-03-13T05:11:02.295Z,53.10
2019-03-13T05:11:33.490Z,53.20
2019-03-13T05:12:04.668Z,53.10
2019-03-13T05:12:35.851Z,53.20
2019-03-13T05:13:07.229Z,53.10
2019-03-13T05:13:38.931Z,53.10
2019-03-13T05:14:10.215Z,53.10
2019-03-13T05:14:41.391Z,53.10
2019-03-13T05:15:12.563Z,53.10
2019-03-13T05:15:43.743Z,53.10
2019-03-13T05:16:15.099Z,53.10
2019-03-13T05:16:46.288Z,53.10
2019-03-13T05:17:17.780Z,53.10
2019-03-13T05:17:48.962Z,53.10
2019-03-13T05:18:20.214Z,53.10
2019-03-13T05:18:51.437Z,53.10
2019-03-13T05:19:22.639Z,53.20
2019-03-13T05:19:53.820Z,53.10
2019-03-13T05:20:24.992Z,53.10
2019-03-13T05:20:56.169Z,53.20
2019-03-13T05:21:27.424Z,53.10
2019-03-13T05:21:58.596Z,53.10
2019-03-13T05:22:29.784Z,53.10
2019-03-13T05:23:01.147Z,53.10
2019-03-13T05:23:32.356Z,53.20
2019-03-13T05:24:03.890Z,53.10
2019-03-13T05:24:35.438Z,53.10
2019-03-13T05:25:06.637Z,53.10
2019-03-13T05:25:37.808Z,53.10
2019-03-13T05:26:09.086Z,53.10
2019-03-13T05:26:40.341Z,53.10
2019-03-13T05:27:11.517Z,53.10
2019-03-13T05:27:43.057Z,53.20
2019-03-13T05:28:14.239Z,53.20
2019-03-13T05:28:45.405Z,53.20
2019-03-13T05:29:16.582Z,53.20
2019-03-13T05:29:47.778Z,53.20
2019-03-13T05:30:18.949Z,53.20
2019-03-13T05:30:52.911Z,53.20
2019-03-13T05:31:23.114Z,53.20
2019-03-13T05:31:54.309Z,53.10
2019-03-13T05:32:25.491Z,53.10
2019-03-13T05:32:56.857Z,53.10
2019-03-13T05:33:28.010Z,53.00
2019-03-13T05:33:59.198Z,53.10
2019-03-13T05:34:30.379Z,53.10
2019-03-13T05:35:01.597Z,53.00
2019-03-13T05:35:33.070Z,53.00
2019-03-13T05:36:04.273Z,53.00
2019-03-13T05:36:35.507Z,53.00
2019-03-13T05:37:06.686Z,53.00
2019-03-13T05:37:38.191Z,53.10
2019-03-13T05:38:09.415Z,53.00
2019-03-13T05:38:40.595Z,53.00
2019-03-13T05:39:11.774Z,53.00
2019-03-13T05:39:42.953Z,53.00
2019-03-13T05:40:14.630Z,53.00
2019-03-13T05:40:46.092Z,52.90
2019-03-13T05:41:17.268Z,53.00
2019-03-13T05:41:48.447Z,52.90
2019-03-13T05:42:19.623Z,52.90
2019-03-13T05:42:50.804Z,53.00
2019-03-13T05:43:21.975Z,53.00
2019-03-13T05:43:53.150Z,53.00
2019-03-13T05:44:24.346Z,53.00
2019-03-13T05:44:55.516Z,53.00
2019-03-13T05:45:26.701Z,52.90
2019-03-13T05:45:57.896Z,53.00
2019-03-13T05:46:29.117Z,53.00
2019-03-13T05:47:00.319Z,53.00
2019-03-13T05:47:31.496Z,53.00
2019-03-13T05:48:02.676Z,53.00
2019-03-13T05:48:33.853Z,53.00
2019-03-13T05:49:05.126Z,53.00
2019-03-13T05:49:36.301Z,53.00
2019-03-13T05:50:07.477Z,53.00
2019-03-13T05:50:38.993Z,53.70
2019-03-13T05:51:10.254Z,53.00
2019-03-13T05:51:41.438Z,53.00
2019-03-13T05:52:12.745Z,53.00
2019-03-13T05:52:43.894Z,53.10
2019-03-13T05:53:15.066Z,53.00
2019-03-13T05:53:46.643Z,53.30
2019-03-13T05:54:17.814Z,53.10
2019-03-13T05:54:48.987Z,53.10
2019-03-13T05:55:20.479Z,53.10
2019-03-13T05:55:51.674Z,53.10
2019-03-13T05:56:22.854Z,53.10
2019-03-13T05:56:54.030Z,53.10
2019-03-13T05:57:25.519Z,53.00
2019-03-13T05:57:56.695Z,53.10
2019-03-13T05:58:27.987Z,53.00
2019-03-13T05:58:59.167Z,53.00
2019-03-13T05:59:30.419Z,53.00
2019-03-13T06:00:01.598Z,53.00
2019-03-13T06:00:32.771Z,53.00
2019-03-13T06:01:03.952Z,53.00
2019-03-13T06:01:35.148Z,53.00
2019-03-13T06:02:06.316Z,53.00
2019-03-13T06:02:37.491Z,53.00
2019-03-13T06:03:08.668Z,53.00
2019-03-13T06:03:39.839Z,53.00
2019-03-13T06:04:11.023Z,53.10
2019-03-13T06:04:42.219Z,53.00
2019-03-13T06:05:13.380Z,53.10
2019-03-13T06:05:44.628Z,53.00
2019-03-13T06:06:16.165Z,53.00
2019-03-13T06:06:47.372Z,53.00
2019-03-13T06:07:18.553Z,53.00
2019-03-13T06:07:49.775Z,53.00
2019-03-13T06:08:20.984Z,53.00
2019-03-13T06:08:52.157Z,53.00
2019-03-13T06:09:25.504Z,53.10
2019-03-13T06:09:56.250Z,53.10
2019-03-13T06:10:27.882Z,53.00
2019-03-13T06:10:59.057Z,53.00
2019-03-13T06:11:30.238Z,53.00
2019-03-13T06:12:01.414Z,53.00
2019-03-13T06:12:32.605Z,53.00
2019-03-13T06:13:03.796Z,53.00
2019-03-13T06:13:34.975Z,53.00
2019-03-13T06:14:06.150Z,53.00
2019-03-13T06:14:37.349Z,53.00
2019-03-13T06:15:08.525Z,53.00
2019-03-13T06:15:39.984Z,53.00
2019-03-13T06:16:11.159Z,53.00
2019-03-13T06:16:42.739Z,53.00
2019-03-13T06:17:13.918Z,53.00
2019-03-13T06:17:45.102Z,53.00
2019-03-13T06:18:16.359Z,53.00
2019-03-13T06:18:47.902Z,53.00
2019-03-13T06:19:19.081Z,53.00
2019-03-13T06:19:50.292Z,53.00
2019-03-13T06:20:21.472Z,53.00
2019-03-13T06:20:52.656Z,53.00
2019-03-13T06:21:23.832Z,53.00
2019-03-13T06:21:55.287Z,53.00
2019-03-13T06:22:26.464Z,53.10
2019-03-13T06:22:57.969Z,53.00
2019-03-13T06:23:29.142Z,53.00
2019-03-13T06:24:00.628Z,53.00
2019-03-13T06:24:31.804Z,53.00
2019-03-13T06:25:02.985Z,53.00
2019-03-13T06:25:34.158Z,53.00
2019-03-13T06:26:05.332Z,53.00
2019-03-13T06:26:36.513Z,53.00
2019-03-13T06:27:07.700Z,53.00
2019-03-13T06:27:38.924Z,52.90
2019-03-13T06:28:10.161Z,53.00
2019-03-13T06:28:41.416Z,52.90
2019-03-13T06:29:12.617Z,52.90
2019-03-13T06:29:43.785Z,53.00
2019-03-13T06:30:14.988Z,53.00
2019-03-13T06:30:46.204Z,53.00
2019-03-13T06:31:17.374Z,53.00
2019-03-13T06:31:48.551Z,53.00
2019-03-13T06:32:19.776Z,53.00
2019-03-13T06:32:50.981Z,53.00
2019-03-13T06:33:22.166Z,52.70
2019-03-13T06:33:53.663Z,53.00
2019-03-13T06:34:24.854Z,53.00
2019-03-13T06:34:56.054Z,53.00
2019-03-13T06:35:27.536Z,53.10
2019-03-13T06:35:59.082Z,53.00
2019-03-13T06:36:30.278Z,53.00
2019-03-13T06:37:01.743Z,53.10
2019-03-13T06:37:32.919Z,52.70
2019-03-13T06:38:04.101Z,53.10
2019-03-13T06:38:35.382Z,53.00
2019-03-13T06:39:06.867Z,53.10
2019-03-13T06:39:38.046Z,53.10
2019-03-13T06:40:09.239Z,53.10
2019-03-13T06:40:40.781Z,53.10
2019-03-13T06:41:11.967Z,53.00
2019-03-13T06:41:43.135Z,53.00
2019-03-13T06:42:14.312Z,53.00
2019-03-13T06:42:45.501Z,53.00